createdAt,value
2022-08-23T00:00:46.227Z,55.70
2022-08-23T00:01:44.133Z,55.52
2022-08-23T00:02:44.196Z,55.13
2022-08-23T00:03:44.108Z,55.50
2022-08-23T00:04:56.905Z,55.22
2022-08-23T00:05:45.065Z,56.40
2022-08-23T00:06:44.046Z,56.02
2022-08-23T00:07:44.137Z,56.13
2022-08-23T00:08:44.073Z,56.02
2022-08-23T00:09:44.031Z,56.13
2022-08-23T00:10:43.988Z,56.33
2022-08-23T00:11:43.975Z,56.13
2022-08-23T00:12:43.950Z,56.02
2022-08-23T00:13:47.324Z,56.83
2022-08-23T00:14:45.371Z,56.52
2022-08-23T00:15:43.911Z,56.93
2022-08-23T00:16:43.872Z,56.65
2022-08-23T00:17:43.875Z,57.03
2022-08-23T00:18:47.643Z,57.15
2022-08-23T00:19:44.852Z,57.03
2022-08-23T00:21:10.192Z,56.93
2022-08-23T00:21:43.829Z,56.93
2022-08-23T00:22:43.777Z,57.03
2022-08-23T00:23:43.868Z,57.86
2022-08-23T00:24:43.783Z,57.63
2022-08-23T00:25:43.745Z,57.53
2022-08-23T00:26:43.718Z,57.96
2022-08-23T00:27:43.692Z,57.56
2022-08-23T00:28:43.679Z,57.33
2022-08-23T00:29:43.709Z,57.35
2022-08-23T00:30:43.641Z,57.35
2022-08-23T00:31:43.624Z,57.06
2022-08-23T00:32:43.605Z,57.46
2022-08-23T00:33:43.593Z,57.76
2022-08-23T00:34:43.608Z,57.96
2022-08-23T00:35:43.556Z,57.66
2022-08-23T00:36:43.529Z,57.66
2022-08-23T00:37:43.523Z,58.16
2022-08-23T00:38:44.505Z,58.16
2022-08-23T00:39:43.574Z,57.56
2022-08-23T00:40:43.481Z,58.16
2022-08-23T00:41:43.482Z,57.76
2022-08-23T00:42:43.435Z,58.06
2022-08-23T00:43:43.420Z,58.18
2022-08-23T00:44:43.425Z,58.36
2022-08-23T00:45:43.398Z,58.18
2022-08-23T00:46:43.366Z,58.18
2022-08-23T00:47:44.861Z,57.98
2022-08-23T00:48:43.327Z,58.16
2022-08-23T00:49:43.342Z,58.26
2022-08-23T00:50:43.298Z,58.16
2022-08-23T00:51:48.769Z,58.06
2022-08-23T00:52:44.259Z,58.26
2022-08-23T00:53:43.240Z,57.96
2022-08-23T00:54:43.263Z,58.16
2022-08-23T00:55:43.295Z,57.96
2022-08-23T00:56:43.190Z,57.96
2022-08-23T00:57:43.168Z,58.18
2022-08-23T00:58:43.171Z,58.36
2022-08-23T00:59:43.184Z,58.46
2022-08-23T01:00:43.126Z,58.06
2022-08-23T01:01:43.167Z,58.29
2022-08-23T01:02:43.101Z,58.26
2022-08-23T01:03:43.090Z,58.46
2022-08-23T01:04:43.085Z,58.46
2022-08-23T01:05:43.044Z,58.36
2022-08-23T01:06:43.024Z,58.16
2022-08-23T01:07:43.048Z,58.36
2022-08-23T01:08:42.986Z,58.36
2022-08-23T01:09:42.996Z,57.96
2022-08-23T01:10:42.949Z,58.26
2022-08-23T01:11:42.932Z,58.16
2022-08-23T01:12:42.914Z,58.46
2022-08-23T01:13:42.893Z,58.46
2022-08-23T01:14:42.951Z,58.06
2022-08-23T01:15:42.869Z,58.49
2022-08-23T01:16:42.847Z,58.26
2022-08-23T01:17:42.826Z,58.76
2022-08-23T01:18:42.828Z,58.16
2022-08-23T01:19:42.816Z,58.49
2022-08-23T01:20:42.764Z,58.69
2022-08-23T01:21:42.753Z,58.06
2022-08-23T01:22:42.739Z,58.06
2022-08-23T01:23:42.776Z,58.29
2022-08-23T01:25:06.460Z,58.69
2022-08-23T01:25:43.738Z,58.99
2022-08-23T01:26:42.681Z,59.09
2022-08-23T01:27:42.655Z,58.49
2022-08-23T01:28:45.746Z,58.99
2022-08-23T01:29:42.672Z,59.09
2022-08-23T01:30:42.605Z,58.59
2022-08-23T01:31:42.581Z,58.79
2022-08-23T01:32:42.567Z,58.69
2022-08-23T01:33:42.575Z,58.69
2022-08-23T01:34:45.378Z,58.69
2022-08-23T01:35:43.522Z,58.49
2022-08-23T01:36:42.499Z,58.79
2022-08-23T01:37:42.491Z,59.09
2022-08-23T01:38:42.471Z,58.69
2022-08-23T01:39:42.535Z,58.89
2022-08-23T01:40:42.433Z,58.89
2022-08-23T01:41:42.422Z,58.99
2022-08-23T01:42:42.410Z,58.99
2022-08-23T01:43:42.438Z,58.49
2022-08-23T01:44:42.395Z,58.49
2022-08-23T01:45:42.354Z,58.49
2022-08-23T01:46:42.328Z,58.59
2022-08-23T01:47:42.319Z,58.69
2022-08-23T01:48:42.310Z,58.89
2022-08-23T01:49:42.319Z,58.79
2022-08-23T01:50:42.256Z,58.89
2022-08-23T01:51:42.280Z,58.79
2022-08-23T01:52:46.611Z,59.01
2022-08-23T01:53:43.313Z,58.79
2022-08-23T01:54:42.217Z,58.79
2022-08-23T01:55:42.175Z,58.89
2022-08-23T01:56:42.161Z,58.89
2022-08-23T01:57:42.138Z,58.79
2022-08-23T01:58:42.165Z,58.49
2022-08-23T01:59:42.158Z,58.89
2022-08-23T02:00:42.089Z,59.79
2022-08-23T02:01:42.156Z,59.39
2022-08-23T02:02:42.111Z,59.09
2022-08-23T02:03:42.059Z,59.09
2022-08-23T02:04:42.046Z,59.32
2022-08-23T02:05:42.062Z,59.22
2022-08-23T02:06:41.984Z,59.72
2022-08-23T02:07:41.968Z,59.39
2022-08-23T02:08:41.948Z,59.01
2022-08-23T02:09:41.965Z,59.49
2022-08-23T02:10:41.911Z,59.19
2022-08-23T02:11:41.895Z,59.72
2022-08-23T02:12:41.874Z,59.01
2022-08-23T02:13:41.901Z,59.42
2022-08-23T02:14:41.885Z,59.69
2022-08-23T02:15:41.840Z,59.39
2022-08-23T02:16:41.808Z,59.32
2022-08-23T02:17:42.817Z,59.42
2022-08-23T02:18:41.773Z,59.32
2022-08-23T02:19:41.789Z,59.42
2022-08-23T02:20:41.751Z,59.72
2022-08-23T02:21:41.782Z,59.52
2022-08-23T02:22:41.710Z,59.42
2022-08-23T02:23:41.759Z,60.32
2022-08-23T02:24:41.775Z,59.92
2022-08-23T02:25:41.668Z,60.02
2022-08-23T02:26:41.642Z,59.42
2022-08-23T02:27:43.981Z,59.75
2022-08-23T02:28:41.612Z,59.92
2022-08-23T02:29:41.638Z,59.52
2022-08-23T02:30:41.595Z,60.02
2022-08-23T02:31:41.560Z,59.42
2022-08-23T02:32:41.551Z,60.02
2022-08-23T02:36:53.929Z,60.12
2022-08-23T02:37:53.948Z,60.12
2022-08-23T02:38:53.932Z,60.02
2022-08-23T02:39:54.004Z,60.02
2022-08-23T02:41:01.023Z,59.82
2022-08-23T02:41:56.066Z,59.62
2022-08-23T02:42:55.045Z,59.42
2022-08-23T02:43:55.037Z,60.02
2022-08-23T02:44:55.037Z,60.52
2022-08-23T02:45:54.997Z,59.42
2022-08-23T02:46:54.975Z,59.62
2022-08-23T02:47:54.960Z,59.52
2022-08-23T02:48:54.930Z,59.65
2022-08-23T02:49:54.948Z,59.42
2022-08-23T02:50:54.912Z,59.82
2022-08-23T02:51:54.906Z,60.15
2022-08-23T02:52:54.865Z,59.85
2022-08-23T02:53:54.854Z,60.05
2022-08-23T02:54:58.059Z,60.25
2022-08-23T02:55:54.818Z,59.95
2022-08-23T02:56:54.797Z,60.35
2022-08-23T02:57:54.786Z,60.12
2022-08-23T02:58:55.062Z,60.32
2022-08-23T02:59:54.794Z,60.15
2022-08-23T03:00:54.747Z,60.02
2022-08-23T03:01:54.758Z,60.05
2022-08-23T03:02:54.720Z,60.05
2022-08-23T03:03:54.692Z,60.25
2022-08-23T03:04:54.700Z,59.95
2022-08-23T03:05:54.671Z,60.05
2022-08-23T03:06:54.648Z,60.15
2022-08-23T03:07:54.623Z,60.85
2022-08-23T03:08:54.602Z,60.35
2022-08-23T03:09:54.624Z,60.45
2022-08-23T03:10:54.570Z,59.95
2022-08-23T03:11:54.558Z,59.75
2022-08-23T03:12:54.530Z,60.55
2022-08-23T03:13:54.514Z,60.15
2022-08-23T03:14:54.527Z,60.45
2022-08-23T03:15:54.490Z,60.45
2022-08-23T03:16:54.479Z,60.85
2022-08-23T03:17:54.455Z,60.18
2022-08-23T03:18:54.438Z,60.35
2022-08-23T03:19:54.448Z,60.78
2022-08-23T03:20:54.398Z,60.68
2022-08-23T03:21:54.379Z,60.65
2022-08-23T03:22:54.911Z,60.28
2022-08-23T03:23:54.346Z,60.85
2022-08-23T03:24:54.401Z,60.55
2022-08-23T03:25:54.325Z,60.65
2022-08-23T03:26:54.298Z,60.88
2022-08-23T03:27:54.293Z,60.96
2022-08-23T03:28:54.263Z,60.65
2022-08-23T03:29:54.288Z,60.55
2022-08-23T03:30:54.203Z,60.15
2022-08-23T03:31:54.151Z,60.05
2022-08-23T03:32:54.126Z,60.55
2022-08-23T03:33:54.116Z,60.25
2022-08-23T03:34:54.123Z,60.96
2022-08-23T03:35:54.117Z,60.85
2022-08-23T03:36:54.085Z,60.45
2022-08-23T03:37:55.303Z,60.85
2022-08-23T03:38:55.025Z,60.85
2022-08-23T03:39:54.143Z,60.65
2022-08-23T03:40:54.007Z,60.22
2022-08-23T03:41:54.006Z,60.62
2022-08-23T03:42:53.973Z,60.62
2022-08-23T03:43:53.944Z,60.75
2022-08-23T03:44:56.905Z,60.75
2022-08-23T03:45:54.922Z,60.72
2022-08-23T03:46:53.894Z,60.35
2022-08-23T03:47:53.891Z,60.85
2022-08-23T03:48:53.860Z,61.13
2022-08-23T03:49:53.844Z,60.96
2022-08-23T03:50:54.523Z,60.65
2022-08-23T03:51:53.815Z,60.65
2022-08-23T03:52:53.788Z,60.85
2022-08-23T03:53:53.785Z,60.65
2022-08-23T03:54:53.770Z,60.85
2022-08-23T03:55:53.783Z,60.65
2022-08-23T03:56:53.811Z,61.15
2022-08-23T03:57:53.743Z,61.46
2022-08-23T03:58:53.697Z,61.29
2022-08-23T03:59:53.683Z,61.88
2022-08-23T04:00:53.687Z,62.29
2022-08-23T04:01:53.698Z,62.32
2022-08-23T04:02:53.623Z,62.72
2022-08-23T04:03:53.733Z,62.52
2022-08-23T04:04:53.596Z,62.42
2022-08-23T04:05:53.608Z,62.52
2022-08-23T04:06:53.561Z,62.42
2022-08-23T04:07:53.530Z,62.22
2022-08-23T04:08:53.538Z,62.32
2022-08-23T04:09:55.278Z,62.62
2022-08-23T04:10:54.522Z,62.55
2022-08-23T04:11:53.478Z,62.52
2022-08-23T04:12:53.457Z,62.42
2022-08-23T04:13:53.436Z,62.22
2022-08-23T04:14:53.424Z,62.22
2022-08-23T04:15:53.434Z,62.62
2022-08-23T04:16:53.518Z,62.32
2022-08-23T04:17:53.393Z,62.42
2022-08-23T04:18:53.355Z,62.32
2022-08-23T04:19:53.353Z,62.42
2022-08-23T04:20:53.387Z,62.45
2022-08-23T04:21:53.323Z,62.24
2022-08-23T04:22:53.301Z,62.24
2022-08-23T04:23:53.278Z,63.15
2022-08-23T04:24:53.278Z,63.15
2022-08-23T04:25:53.294Z,63.05
2022-08-23T04:26:53.220Z,62.92
2022-08-23T04:27:53.216Z,62.55
2022-08-23T04:28:53.206Z,63.25
2022-08-23T04:29:53.194Z,63.05
2022-08-23T04:30:53.183Z,63.45
2022-08-23T04:31:53.142Z,63.25
2022-08-23T04:32:53.117Z,63.76
2022-08-23T04:33:53.100Z,63.65
2022-08-23T04:34:54.095Z,63.65
2022-08-23T04:35:53.105Z,63.35
2022-08-23T04:36:55.323Z,63.65
2022-08-23T04:37:53.049Z,63.96
2022-08-23T04:38:53.023Z,63.65
2022-08-23T04:39:53.940Z,64.06
2022-08-23T04:40:53.019Z,63.56
2022-08-23T04:41:52.976Z,63.76
2022-08-23T04:42:52.955Z,63.65
2022-08-23T04:43:52.957Z,63.25
2022-08-23T04:44:52.932Z,64.06
2022-08-23T04:45:52.949Z,63.65
2022-08-23T04:46:52.888Z,63.85
2022-08-23T04:47:52.875Z,63.85
2022-08-23T04:48:52.858Z,63.85
2022-08-23T04:49:52.848Z,63.79
2022-08-23T04:50:52.865Z,63.65
2022-08-23T04:51:54.164Z,63.96
2022-08-23T04:52:52.783Z,64.36
2022-08-23T04:53:52.776Z,64.06
2022-08-23T04:54:52.788Z,63.76
2022-08-23T04:55:52.743Z,63.65
2022-08-23T04:56:52.713Z,63.65
2022-08-23T04:57:52.711Z,63.85
2022-08-23T04:58:52.697Z,63.65
2022-08-23T04:59:52.739Z,63.65
2022-08-23T05:00:52.710Z,63.15
2022-08-23T05:01:52.633Z,63.65
2022-08-23T05:02:52.627Z,63.85
2022-08-23T05:03:52.619Z,63.85
2022-08-23T05:04:52.623Z,63.25
2022-08-23T05:05:52.563Z,63.65
2022-08-23T05:06:52.552Z,63.85
2022-08-23T05:07:52.528Z,63.65
2022-08-23T05:08:52.533Z,63.35
2022-08-23T05:09:52.499Z,63.05
2022-08-23T05:10:52.519Z,62.15
2022-08-23T05:11:52.468Z,62.24
2022-08-23T05:12:52.450Z,62.12
2022-08-23T05:13:52.428Z,62.22
2022-08-23T05:14:52.451Z,62.32
2022-08-23T05:15:52.442Z,62.22
2022-08-23T05:16:52.403Z,62.32
2022-08-23T05:17:52.374Z,62.32
2022-08-23T05:18:52.346Z,62.42
2022-08-23T05:19:52.373Z,62.62
2022-08-23T05:20:52.361Z,62.32
2022-08-23T05:21:56.793Z,62.52
2022-08-23T05:22:53.298Z,62.59
2022-08-23T05:23:54.781Z,62.22
2022-08-23T05:24:52.278Z,62.62
2022-08-23T05:25:53.472Z,61.99
2022-08-23T05:26:52.212Z,62.29
2022-08-23T05:27:52.204Z,61.69
2022-08-23T05:28:52.173Z,62.19
2022-08-23T05:29:52.203Z,61.69
2022-08-23T05:30:56.328Z,61.08
2022-08-23T05:31:53.138Z,61.99
2022-08-23T05:32:52.128Z,60.85
2022-08-23T05:33:52.093Z,61.15
2022-08-23T05:34:52.100Z,61.05
2022-08-23T05:35:53.065Z,61.05
2022-08-23T05:36:55.666Z,61.35
2022-08-23T05:37:52.022Z,61.46
2022-08-23T05:38:53.006Z,61.29
2022-08-23T05:39:52.098Z,60.55
2022-08-23T05:40:52.614Z,60.75
2022-08-23T05:41:51.978Z,61.05
2022-08-23T05:42:51.939Z,60.52
2022-08-23T05:43:51.935Z,60.62
2022-08-23T05:44:51.951Z,60.32
2022-08-23T05:45:51.897Z,60.69
2022-08-23T05:46:51.876Z,60.49
2022-08-23T05:47:51.866Z,59.89
2022-08-23T05:48:51.841Z,59.66
2022-08-23T05:49:51.850Z,59.96
2022-08-23T05:50:51.844Z,59.36
2022-08-23T05:51:51.971Z,59.46
2022-08-23T05:52:51.767Z,58.20
2022-08-23T05:53:51.861Z,57.32
2022-08-23T05:54:51.860Z,55.02
2022-08-23T05:55:51.764Z,53.14
2022-08-23T05:56:51.700Z,51.20
2022-08-23T05:57:51.684Z,50.70
2022-08-23T05:58:51.674Z,50.92
2022-08-23T05:59:51.661Z,50.57
2022-08-23T06:00:51.832Z,49.01
2022-08-23T06:01:51.615Z,48.05
2022-08-23T06:02:51.606Z,46.24
2022-08-23T06:03:51.581Z,46.22
2022-08-23T06:04:55.507Z,45.28
2022-08-23T06:05:53.579Z,45.73
2022-08-23T06:06:51.567Z,43.24
2022-08-23T06:07:51.520Z,43.53
2022-08-23T06:08:51.550Z,43.28
2022-08-23T06:09:51.497Z,44.05
2022-08-23T06:10:51.508Z,43.35
2022-08-23T06:11:51.471Z,43.51
2022-08-23T06:12:51.439Z,42.62
2022-08-23T06:13:51.454Z,41.59
2022-08-23T06:14:51.398Z,41.47
2022-08-23T06:15:51.450Z,41.36
2022-08-23T06:16:55.505Z,40.23
2022-08-23T06:17:52.373Z,39.31
2022-08-23T06:18:51.361Z,38.87
2022-08-23T06:19:51.360Z,38.28
2022-08-23T06:20:51.458Z,36.47
2022-08-23T06:22:23.683Z,36.26
2022-08-23T06:22:51.297Z,36.46
2022-08-23T06:23:51.304Z,36.75
2022-08-23T06:24:51.279Z,36.83
2022-08-23T06:25:51.234Z,36.05
2022-08-23T06:26:51.230Z,35.75
2022-08-23T06:27:51.217Z,35.95
2022-08-23T06:28:51.555Z,36.05
2022-08-23T06:29:51.219Z,35.64
2022-08-23T06:30:51.212Z,36.13
2022-08-23T06:31:51.200Z,35.33
2022-08-23T06:32:51.155Z,35.64
2022-08-23T06:33:51.249Z,34.74
2022-08-23T06:34:51.163Z,33.84
2022-08-23T06:35:52.102Z,34.01
2022-08-23T06:36:51.078Z,33.61
2022-08-23T06:37:51.113Z,33.48
2022-08-23T06:38:51.045Z,33.46
2022-08-23T06:39:51.075Z,33.65
2022-08-23T06:40:51.047Z,32.56
2022-08-23T06:41:51.023Z,32.27
2022-08-23T06:42:50.978Z,32.06
2022-08-23T06:43:50.975Z,32.75
2022-08-23T06:44:50.959Z,32.35
2022-08-23T06:45:53.812Z,31.75
2022-08-23T06:46:51.946Z,32.14
2022-08-23T06:47:50.898Z,31.84
2022-08-23T06:48:50.943Z,31.56
2022-08-23T06:49:57.409Z,31.36
2022-08-23T06:50:51.889Z,31.85
2022-08-23T06:51:50.852Z,31.46
2022-08-23T06:52:50.884Z,31.46
2022-08-23T06:53:50.808Z,31.85
2022-08-23T06:54:50.876Z,31.77
2022-08-23T06:55:50.836Z,31.62
2022-08-23T06:56:50.763Z,32.51
2022-08-23T06:57:50.763Z,32.40
2022-08-23T06:58:50.787Z,32.42
2022-08-23T06:59:50.729Z,32.20
2022-08-23T07:00:54.184Z,31.70
2022-08-23T07:01:51.814Z,31.73
2022-08-23T07:02:50.789Z,31.73
2022-08-23T07:03:50.659Z,32.14
2022-08-23T07:04:50.636Z,32.43
2022-08-23T07:05:50.667Z,32.73
2022-08-23T07:06:50.625Z,32.32
2022-08-23T07:07:50.591Z,31.41
2022-08-23T07:08:50.588Z,32.09
2022-08-23T07:09:50.561Z,32.07
2022-08-23T07:10:50.590Z,30.69
2022-08-23T07:11:50.533Z,29.21
2022-08-23T07:12:50.513Z,29.41
2022-08-23T07:13:50.495Z,29.79
2022-08-23T07:14:50.486Z,29.18
2022-08-23T07:15:50.543Z,29.00
2022-08-23T07:16:50.447Z,29.28
2022-08-23T07:17:50.463Z,28.19
2022-08-23T07:18:50.425Z,28.09
2022-08-23T07:19:50.415Z,28.49
2022-08-23T07:20:50.425Z,28.30
2022-08-23T07:21:50.396Z,28.42
2022-08-23T07:22:50.367Z,29.38
2022-08-23T07:23:50.340Z,29.17
2022-08-23T07:24:50.337Z,28.19
2022-08-23T07:25:50.359Z,28.00
2022-08-23T07:26:50.302Z,28.29
2022-08-23T07:27:50.301Z,28.38
2022-08-23T07:28:50.268Z,28.07
2022-08-23T07:29:50.268Z,27.29
2022-08-23T07:30:50.275Z,27.58
2022-08-23T07:31:50.283Z,27.97
2022-08-23T07:32:50.207Z,28.05
2022-08-23T07:33:50.200Z,28.04
2022-08-23T07:34:50.245Z,26.84
2022-08-23T07:35:50.261Z,26.78
2022-08-23T07:36:50.204Z,27.37
2022-08-23T07:37:50.149Z,26.87
2022-08-23T07:38:51.619Z,27.16
2022-08-23T07:39:51.133Z,27.15
2022-08-23T07:40:54.138Z,27.53
2022-08-23T07:41:50.093Z,27.70
2022-08-23T07:42:50.086Z,26.75
2022-08-23T07:43:50.075Z,27.48
2022-08-23T07:44:50.036Z,28.12
2022-08-23T07:45:51.695Z,28.72
2022-08-23T07:46:50.093Z,29.93
2022-08-23T07:47:50.732Z,29.84
2022-08-23T07:48:54.365Z,30.85
2022-08-23T07:49:50.985Z,31.97
2022-08-23T07:50:57.885Z,31.90
2022-08-23T07:51:50.974Z,33.82
2022-08-23T07:52:49.943Z,34.36
2022-08-23T07:53:49.929Z,34.28
2022-08-23T07:54:49.903Z,35.17
2022-08-23T07:55:49.937Z,35.46
2022-08-23T07:56:49.889Z,35.66
2022-08-23T07:57:49.863Z,35.96
2022-08-23T07:58:49.869Z,36.23
2022-08-23T07:59:49.832Z,35.53
2022-08-23T08:00:49.867Z,34.25
2022-08-23T08:01:49.852Z,32.51
2022-08-23T08:02:49.853Z,32.07
2022-08-23T08:03:49.785Z,30.77
2022-08-23T08:04:49.758Z,30.24
2022-08-23T08:05:49.774Z,28.65
2022-08-23T08:07:04.834Z,28.15
2022-08-23T08:07:51.722Z,28.53
2022-08-23T08:08:49.709Z,27.92
2022-08-23T08:09:49.684Z,27.69
2022-08-23T08:10:49.704Z,27.40
2022-08-23T08:11:49.654Z,27.51
2022-08-23T08:12:49.653Z,27.69
2022-08-23T08:13:49.652Z,27.59
2022-08-23T08:14:49.631Z,27.48
2022-08-23T08:15:49.679Z,27.31
2022-08-23T08:16:49.582Z,27.31
2022-08-23T08:17:49.584Z,27.39
2022-08-23T08:18:49.566Z,27.19
2022-08-23T08:19:49.547Z,27.39
2022-08-23T08:20:49.560Z,27.29
2022-08-23T08:21:49.514Z,27.57
2022-08-23T08:22:51.156Z,27.28
2022-08-23T08:23:51.487Z,26.79
2022-08-23T08:24:49.476Z,27.67
2022-08-23T08:25:49.526Z,27.37
2022-08-23T08:26:49.452Z,26.79
2022-08-23T08:27:49.472Z,28.00
2022-08-23T08:28:49.429Z,28.28
2022-08-23T08:29:49.421Z,27.29
2022-08-23T08:30:49.431Z,27.50
2022-08-23T08:31:53.616Z,27.97
2022-08-23T08:32:50.396Z,26.89
2022-08-23T08:33:49.352Z,27.47
2022-08-23T08:34:49.344Z,27.17
2022-08-23T08:35:58.185Z,26.96
2022-08-23T08:36:50.343Z,26.95
2022-08-23T08:37:49.311Z,26.76
2022-08-23T08:38:51.765Z,27.36
2022-08-23T08:39:49.321Z,27.28
2022-08-23T08:40:49.305Z,26.79
2022-08-23T08:41:49.260Z,27.29
2022-08-23T08:42:50.240Z,27.97
2022-08-23T08:43:49.226Z,28.17
2022-08-23T08:44:49.210Z,27.39
2022-08-23T08:45:58.862Z,27.39
2022-08-23T08:46:50.261Z,27.39
2022-08-23T08:47:49.178Z,27.68
2022-08-23T08:48:49.174Z,27.10
2022-08-23T08:49:49.152Z,27.01
2022-08-23T08:50:49.169Z,27.79
2022-08-23T08:51:49.142Z,27.57
2022-08-23T08:52:49.105Z,26.48
2022-08-23T08:53:49.101Z,27.39
2022-08-23T08:54:49.085Z,27.29
2022-08-23T08:55:49.122Z,27.37
2022-08-23T08:56:49.083Z,26.87
2022-08-23T08:57:49.077Z,26.67
2022-08-23T08:58:49.037Z,25.51
2022-08-23T08:59:49.027Z,25.40
2022-08-23T09:00:52.664Z,27.13
2022-08-23T09:01:50.030Z,26.07
2022-08-23T09:02:50.350Z,25.29
2022-08-23T09:03:48.977Z,24.79
2022-08-23T09:04:48.949Z,24.78
2022-08-23T09:05:48.984Z,24.18
2022-08-23T09:06:48.938Z,24.38
2022-08-23T09:07:48.913Z,24.78
2022-08-23T09:08:48.902Z,24.29
2022-08-23T09:09:48.889Z,24.49
2022-08-23T09:10:48.904Z,24.69
2022-08-23T09:11:48.856Z,25.49
2022-08-23T09:12:48.840Z,25.10
2022-08-23T09:13:48.842Z,25.79
2022-08-23T09:14:48.839Z,26.17
2022-08-23T09:15:48.879Z,26.86
2022-08-23T09:16:48.803Z,26.46
2022-08-23T09:17:48.771Z,26.63
2022-08-23T09:18:48.847Z,24.98
2022-08-23T09:19:48.742Z,25.85
2022-08-23T09:20:48.779Z,26.54
2022-08-23T09:21:48.737Z,24.72
2022-08-23T09:22:48.699Z,25.70
2022-08-23T09:24:00.507Z,25.99
2022-08-23T09:24:49.685Z,25.41
2022-08-23T09:25:48.701Z,26.20
2022-08-23T09:26:48.678Z,26.78
2022-08-23T09:27:48.637Z,26.46
2022-08-23T09:28:48.645Z,25.68
2022-08-23T09:29:48.649Z,25.01
2022-08-23T09:30:48.706Z,25.19
2022-08-23T09:31:48.684Z,25.18
2022-08-23T09:32:48.574Z,24.77
2022-08-23T09:33:48.569Z,25.24
2022-08-23T09:34:48.558Z,24.07
2022-08-23T09:35:48.580Z,23.57
2022-08-23T09:36:48.548Z,24.48
2022-08-23T09:37:48.517Z,24.78
2022-08-23T09:38:48.507Z,23.80
2022-08-23T09:39:48.570Z,24.29
2022-08-23T09:40:48.517Z,24.90
2022-08-23T09:41:48.466Z,25.12
2022-08-23T09:42:48.449Z,25.60
2022-08-23T09:43:48.435Z,26.20
2022-08-23T09:44:48.457Z,24.73
2022-08-23T09:45:48.415Z,24.52
2022-08-23T09:46:48.401Z,24.90
2022-08-23T09:47:48.375Z,24.72
2022-08-23T09:48:48.369Z,25.42
2022-08-23T09:49:48.353Z,25.73
2022-08-23T09:50:48.377Z,25.78
2022-08-23T09:51:48.341Z,25.40
2022-08-23T09:52:48.323Z,24.60
2022-08-23T09:53:48.331Z,23.81
2022-08-23T09:54:48.280Z,23.52
2022-08-23T09:55:48.314Z,24.18
2022-08-23T09:56:48.261Z,23.80
2022-08-23T09:57:48.270Z,23.87
2022-08-23T09:58:48.233Z,23.58
2022-08-23T09:59:48.252Z,22.91
2022-08-23T10:00:48.226Z,24.78
2022-08-23T10:01:48.239Z,23.06
2022-08-23T10:02:48.174Z,24.16
2022-08-23T10:03:48.212Z,24.54
2022-08-23T10:04:48.214Z,24.62
2022-08-23T10:05:48.160Z,24.33
2022-08-23T10:06:48.179Z,23.94
2022-08-23T10:07:48.108Z,24.23
2022-08-23T10:08:48.095Z,24.24
2022-08-23T10:09:48.085Z,24.62
2022-08-23T10:10:50.918Z,24.82
2022-08-23T10:11:48.055Z,24.32
2022-08-23T10:12:48.043Z,23.74
2022-08-23T10:13:48.057Z,24.88
2022-08-23T10:14:48.009Z,24.77
2022-08-23T10:15:48.097Z,23.02
2022-08-23T10:16:47.981Z,23.22
2022-08-23T10:17:47.962Z,24.10
2022-08-23T10:18:47.958Z,23.63
2022-08-23T10:19:47.988Z,24.22
2022-08-23T10:20:47.963Z,23.75
2022-08-23T10:21:47.907Z,24.43
2022-08-23T10:22:47.892Z,24.13
2022-08-23T10:23:47.953Z,23.85
2022-08-23T10:24:47.884Z,24.80
2022-08-23T10:25:47.910Z,25.01
2022-08-23T10:26:47.845Z,23.65
2022-08-23T10:27:47.847Z,23.63
2022-08-23T10:28:47.827Z,23.82
2022-08-23T10:29:47.801Z,23.92
2022-08-23T10:30:47.836Z,24.11
2022-08-23T10:31:47.775Z,23.23
2022-08-23T10:32:47.755Z,23.71
2022-08-23T10:33:47.791Z,23.33
2022-08-23T10:34:50.603Z,23.61
2022-08-23T10:35:48.763Z,24.78
2022-08-23T10:36:47.704Z,23.50
2022-08-23T10:37:47.687Z,23.50
2022-08-23T10:38:47.678Z,24.18
2022-08-23T10:39:47.717Z,23.33
2022-08-23T10:40:47.688Z,24.21
2022-08-23T10:41:47.649Z,24.02
2022-08-23T10:42:47.620Z,23.63
2022-08-23T10:43:47.628Z,24.43
2022-08-23T10:44:47.587Z,24.52
2022-08-23T10:45:47.619Z,24.91
2022-08-23T10:46:47.608Z,24.43
2022-08-23T10:47:47.548Z,24.52
2022-08-23T10:48:47.538Z,24.26
2022-08-23T10:49:47.518Z,25.65
2022-08-23T10:50:55.801Z,26.84
2022-08-23T10:51:48.496Z,27.34
2022-08-23T10:52:47.493Z,27.36
2022-08-23T10:53:47.531Z,27.48
2022-08-23T10:54:47.451Z,27.98
2022-08-23T10:55:47.464Z,28.18
2022-08-23T10:56:48.816Z,27.80
2022-08-23T10:57:47.417Z,28.30
2022-08-23T10:58:47.659Z,28.20
2022-08-23T10:59:47.380Z,28.81
2022-08-23T11:00:47.399Z,28.12
2022-08-23T11:01:47.488Z,29.00
2022-08-23T11:02:47.372Z,29.30
2022-08-23T11:03:47.378Z,29.31
2022-08-23T11:04:47.333Z,29.53
2022-08-23T11:05:47.329Z,29.84
2022-08-23T11:06:47.294Z,29.64
2022-08-23T11:07:47.280Z,30.91
2022-08-23T11:08:48.101Z,30.82
2022-08-23T11:09:48.798Z,30.23
2022-08-23T11:10:55.842Z,29.68
2022-08-23T11:11:48.233Z,31.65
2022-08-23T11:12:47.225Z,31.86
2022-08-23T11:13:47.198Z,32.06
2022-08-23T11:14:47.156Z,32.37
2022-08-23T11:15:47.268Z,31.99
2022-08-23T11:16:47.135Z,32.68
2022-08-23T11:17:47.109Z,32.57
2022-08-23T11:18:47.112Z,32.69
2022-08-23T11:19:47.072Z,32.71
2022-08-23T11:20:47.117Z,33.80
2022-08-23T11:21:47.070Z,33.61
2022-08-23T11:22:47.028Z,33.72
2022-08-23T11:23:47.035Z,34.90
2022-08-23T11:24:46.996Z,34.31
2022-08-23T11:25:47.071Z,33.91
2022-08-23T11:26:46.969Z,34.41
2022-08-23T11:27:46.967Z,34.23
2022-08-23T11:28:46.947Z,33.05
2022-08-23T11:29:46.926Z,33.82
2022-08-23T11:30:46.984Z,34.33
2022-08-23T11:31:46.895Z,34.63
2022-08-23T11:32:46.872Z,35.21
2022-08-23T11:33:46.855Z,34.33
2022-08-23T11:34:46.879Z,33.72
2022-08-23T11:35:46.858Z,34.01
2022-08-23T11:36:46.821Z,34.49
2022-08-23T11:37:46.790Z,34.30
2022-08-23T11:38:46.807Z,33.82
2022-08-23T11:39:46.816Z,34.03
2022-08-23T11:40:46.748Z,33.74
2022-08-23T11:41:46.755Z,33.44
2022-08-23T11:42:46.729Z,33.82
2022-08-23T11:43:46.794Z,33.82
2022-08-23T11:44:46.784Z,33.64
2022-08-23T11:45:46.783Z,33.92
2022-08-23T11:46:46.695Z,34.22
2022-08-23T11:47:46.650Z,33.33
2022-08-23T11:48:46.706Z,34.59
2022-08-23T11:49:48.634Z,33.92
2022-08-23T11:50:46.637Z,34.78
2022-08-23T11:51:46.594Z,34.30
2022-08-23T11:52:46.590Z,33.82
2022-08-23T11:53:46.577Z,34.63
2022-08-23T11:54:46.666Z,34.51
2022-08-23T11:55:46.541Z,34.70
2022-08-23T11:56:46.614Z,33.72
2022-08-23T11:57:46.503Z,34.51
2022-08-23T11:58:46.480Z,34.89
2022-08-23T11:59:46.487Z,34.30
2022-08-23T12:00:46.443Z,34.22
2022-08-23T12:01:47.309Z,33.84
2022-08-23T12:02:46.570Z,34.74
2022-08-23T12:03:46.661Z,34.84
2022-08-23T12:04:47.362Z,33.97
2022-08-23T12:05:46.378Z,34.86
2022-08-23T12:06:51.019Z,35.84
2022-08-23T12:07:47.391Z,35.44
2022-08-23T12:08:46.335Z,35.15
2022-08-23T12:09:46.340Z,33.97
2022-08-23T12:10:46.300Z,35.94
2022-08-23T12:11:46.279Z,34.75
2022-08-23T12:12:47.430Z,35.84
2022-08-23T12:13:47.331Z,36.13
2022-08-23T12:14:46.260Z,35.03
2022-08-23T12:15:46.250Z,35.33
2022-08-23T12:16:50.017Z,35.63
2022-08-23T12:17:46.192Z,35.13
2022-08-23T12:18:46.215Z,34.94
2022-08-23T12:19:47.184Z,34.64
2022-08-23T12:20:48.538Z,34.27
2022-08-23T12:21:46.121Z,35.64
2022-08-23T12:22:46.125Z,34.54
2022-08-23T12:23:48.012Z,35.53
2022-08-23T12:24:47.152Z,35.63
2022-08-23T12:25:46.086Z,35.43
2022-08-23T12:26:46.040Z,34.17
2022-08-23T12:27:46.062Z,35.44
2022-08-23T12:28:46.009Z,35.44
2022-08-23T12:29:46.030Z,35.35
2022-08-23T12:30:46.077Z,34.86
2022-08-23T12:31:46.073Z,33.97
2022-08-23T12:32:45.945Z,35.15
2022-08-23T12:33:45.975Z,34.97
2022-08-23T12:34:47.267Z,35.56
2022-08-23T12:35:45.923Z,35.66
2022-08-23T12:36:45.898Z,35.36
2022-08-23T12:37:45.886Z,35.36
2022-08-23T12:38:45.859Z,35.25
2022-08-23T12:39:45.850Z,35.94
2022-08-23T12:40:45.933Z,35.54
2022-08-23T12:41:45.831Z,35.64
2022-08-23T12:42:45.792Z,34.75
2022-08-23T12:43:45.779Z,34.27
2022-08-23T12:44:45.763Z,33.87
2022-08-23T12:45:45.778Z,35.82
2022-08-23T12:46:45.822Z,34.64
2022-08-23T12:47:45.732Z,34.44
2022-08-23T12:48:45.690Z,33.75
2022-08-23T12:49:45.687Z,34.05
2022-08-23T12:50:45.700Z,34.05
2022-08-23T12:51:45.659Z,34.44
2022-08-23T12:52:45.625Z,34.15
2022-08-23T12:53:45.868Z,34.46
2022-08-23T12:54:45.607Z,34.17
2022-08-23T12:55:45.622Z,35.36